Kilbirnie, United Kingdom
Current Conditions -  °F | °C
As of 7:50 PM on Monday 24 Nov 2014 (Local Time) from EGPF Reporting Station
Overcast Overcast  
Wind Chill: 44°   Ceiling: 2000
Heat Index: 46°   Visibility: 6mi
Dew Point: 41°   Wind: 6mph
Humidity: 81%   Direction: 170°S
Pressure: 30.24"   Gusts: NA
Location:  55.75°N, 4.69°W
Report Text: EGPF 241950Z AUTO 17005KT 9999 OVC020 08/05 Q1024
Loading
Personal Weather Stations






























Interactive Weather Map New forecast layout! Learn more

10-Day Weather Forecast

Advertisements
Track Severe Weather on mobile